sensor_id;sensor_type;location;lat;lon;timestamp;pressure;altitude;pressure_sealevel;temperature;humidity
60611;BME280;46439;51.164;13.572;2023-10-31T00:00:05;98048.08;;;17.18;100.00
60611;BME280;46439;51.164;13.572;2023-10-31T00:02:34;98043.52;;;17.20;100.00
60611;BME280;46439;51.164;13.572;2023-10-31T00:05:05;98029.39;;;17.21;100.00
60611;BME280;46439;51.164;13.572;2023-10-31T00:07:33;98029.00;;;17.19;100.00
60611;BME280;46439;51.164;13.572;2023-10-31T00:10:03;98044.10;;;17.16;100.00
60611;BME280;46439;51.164;13.572;2023-10-31T00:12:32;98033.09;;;17.15;100.00
60611;BME280;46439;51.164;13.572;2023-10-31T00:15:00;98015.52;;;17.16;100.00
60611;BME280;46439;51.164;13.572;2023-10-31T00:17:29;98018.36;;;17.16;100.00
60611;BME280;46439;51.164;13.572;2023-10-31T00:19:57;98018.96;;;17.17;100.00
60611;BME280;46439;51.164;13.572;2023-10-31T00:22:26;98026.55;;;17.19;100.00
60611;BME280;46439;51.164;13.572;2023-10-31T00:24:55;98037.40;;;17.22;100.00
60611;BME280;46439;51.164;13.572;2023-10-31T00:27:24;98043.19;;;17.21;100.00
60611;BME280;46439;51.164;13.572;2023-10-31T00:29:53;98050.48;;;17.21;100.00
60611;BME280;46439;51.164;13.572;2023-10-31T00:32:21;98057.38;;;17.23;100.00
60611;BME280;46439;51.164;13.572;2023-10-31T00:34:50;98060.21;;;17.25;100.00
60611;BME280;46439;51.164;13.572;2023-10-31T00:37:19;98056.92;;;17.23;100.00
60611;BME280;46439;51.164;13.572;2023-10-31T00:39:47;98056.11;;;17.23;100.00
60611;BME280;46439;51.164;13.572;2023-10-31T00:42:16;98062.51;;;17.21;100.00
60611;BME280;46439;51.164;13.572;2023-10-31T00:44:45;98066.41;;;17.20;100.00
60611;BME280;46439;51.164;13.572;2023-10-31T00:47:14;98073.92;;;17.14;100.00
60611;BME280;46439;51.164;13.572;2023-10-31T00:49:43;98075.65;;;17.09;100.00
60611;BME280;46439;51.164;13.572;2023-10-31T00:52:12;98067.13;;;17.05;100.00
60611;BME280;46439;51.164;13.572;2023-10-31T00:54:41;98060.69;;;17.03;100.00
60611;BME280;46439;51.164;13.572;2023-10-31T00:57:10;98060.57;;;17.00;100.00
60611;BME280;46439;51.164;13.572;2023-10-31T00:59:39;98054.94;;;16.98;100.00
60611;BME280;46439;51.164;13.572;2023-10-31T01:02:07;98061.75;;;16.96;100.00
60611;BME280;46439;51.164;13.572;2023-10-31T01:04:37;98055.86;;;16.91;100.00
60611;BME280;46439;51.164;13.572;2023-10-31T01:07:06;98051.11;;;16.92;100.00
60611;BME280;46439;51.164;13.572;2023-10-31T01:09:35;98046.64;;;16.90;100.00
60611;BME280;46439;51.164;13.572;2023-10-31T01:12:04;98037.01;;;16.84;100.00
60611;BME280;46439;51.164;13.572;2023-10-31T01:14:33;98030.74;;;16.85;100.00
60611;BME280;46439;51.164;13.572;2023-10-31T01:17:02;98028.10;;;16.89;100.00
60611;BME280;46439;51.164;13.572;2023-10-31T01:19:31;98033.08;;;16.93;100.00
60611;BME280;46439;51.164;13.572;2023-10-31T01:22:00;98035.75;;;16.95;100.00
60611;BME280;46439;51.164;13.572;2023-10-31T01:24:28;98036.39;;;16.92;100.00
60611;BME280;46439;51.164;13.572;2023-10-31T01:26:57;98037.54;;;16.92;100.00
60611;BME280;46439;51.164;13.572;2023-10-31T01:29:25;98043.33;;;16.95;100.00
60611;BME280;46439;51.164;13.572;2023-10-31T01:31:54;98047.47;;;16.93;100.00
60611;BME280;46439;51.164;13.572;2023-10-31T01:34:23;98046.16;;;16.94;100.00
60611;BME280;46439;51.164;13.572;2023-10-31T01:36:51;98042.35;;;16.95;100.00
60611;BME280;46439;51.164;13.572;2023-10-31T01:39:20;98041.10;;;16.99;100.00
60611;BME280;46439;51.164;13.572;2023-10-31T01:41:48;98038.02;;;17.03;100.00
60611;BME280;46439;51.164;13.572;2023-10-31T01:44:17;98030.91;;;17.01;100.00
60611;BME280;46439;51.164;13.572;2023-10-31T01:46:45;98021.89;;;16.92;100.00
60611;BME280;46439;51.164;13.572;2023-10-31T01:49:15;98021.34;;;16.89;100.00
60611;BME280;46439;51.164;13.572;2023-10-31T01:51:44;98013.33;;;16.87;100.00
60611;BME280;46439;51.164;13.572;2023-10-31T01:54:13;98010.33;;;16.90;100.00
60611;BME280;46439;51.164;13.572;2023-10-31T01:56:43;98011.76;;;16.94;100.00
60611;BME280;46439;51.164;13.572;2023-10-31T01:59:12;98009.91;;;16.96;100.00
60611;BME280;46439;51.164;13.572;2023-10-31T02:01:41;98006.16;;;16.99;100.00
60611;BME280;46439;51.164;13.572;2023-10-31T02:04:10;98011.40;;;17.00;100.00
60611;BME280;46439;51.164;13.572;2023-10-31T02:06:38;98014.13;;;17.01;100.00
60611;BME280;46439;51.164;13.572;2023-10-31T02:09:07;98013.27;;;17.00;100.00
60611;BME280;46439;51.164;13.572;2023-10-31T02:11:36;98012.11;;;16.99;100.00
60611;BME280;46439;51.164;13.572;2023-10-31T02:14:05;98016.77;;;16.91;100.00
60611;BME280;46439;51.164;13.572;2023-10-31T02:16:34;98013.73;;;16.83;100.00
60611;BME280;46439;51.164;13.572;2023-10-31T02:19:02;98015.56;;;16.82;100.00
60611;BME280;46439;51.164;13.572;2023-10-31T02:21:32;98016.02;;;16.82;100.00
60611;BME280;46439;51.164;13.572;2023-10-31T02:24:02;98013.91;;;16.84;100.00
60611;BME280;46439;51.164;13.572;2023-10-31T02:26:32;98009.88;;;16.84;100.00
60611;BME280;46439;51.164;13.572;2023-10-31T02:29:02;98013.90;;;16.84;100.00
60611;BME280;46439;51.164;13.572;2023-10-31T02:31:30;98025.27;;;16.81;100.00
60611;BME280;46439;51.164;13.572;2023-10-31T02:33:59;98034.00;;;16.75;100.00
60611;BME280;46439;51.164;13.572;2023-10-31T02:36:28;98039.42;;;16.66;100.00
60611;BME280;46439;51.164;13.572;2023-10-31T02:38:57;98053.02;;;16.64;100.00
60611;BME280;46439;51.164;13.572;2023-10-31T02:41:25;98059.92;;;16.59;100.00
60611;BME280;46439;51.164;13.572;2023-10-31T02:43:54;98059.16;;;16.49;100.00
60611;BME280;46439;51.164;13.572;2023-10-31T02:46:23;98055.92;;;16.36;100.00
60611;BME280;46439;51.164;13.572;2023-10-31T02:48:52;98062.36;;;16.29;100.00
60611;BME280;46439;51.164;13.572;2023-10-31T02:51:20;98059.62;;;16.26;100.00
60611;BME280;46439;51.164;13.572;2023-10-31T02:53:49;98052.91;;;16.25;100.00
60611;BME280;46439;51.164;13.572;2023-10-31T02:56:18;98050.67;;;16.24;100.00
60611;BME280;46439;51.164;13.572;2023-10-31T02:58:47;98045.20;;;16.26;100.00
60611;BME280;46439;51.164;13.572;2023-10-31T03:01:15;98051.17;;;16.25;100.00
60611;BME280;46439;51.164;13.572;2023-10-31T03:03:46;98054.34;;;16.25;100.00
60611;BME280;46439;51.164;13.572;2023-10-31T03:06:14;98057.22;;;16.25;100.00
60611;BME280;46439;51.164;13.572;2023-10-31T03:08:43;98058.79;;;16.24;100.00
60611;BME280;46439;51.164;13.572;2023-10-31T03:11:22;98061.51;;;16.24;100.00
60611;BME280;46439;51.164;13.572;2023-10-31T03:13:51;98063.51;;;16.20;100.00
60611;BME280;46439;51.164;13.572;2023-10-31T03:16:21;98066.02;;;16.15;100.00
60611;BME280;46439;51.164;13.572;2023-10-31T03:18:50;98067.71;;;16.15;100.00
60611;BME280;46439;51.164;13.572;2023-10-31T03:21:19;98063.86;;;16.19;100.00
60611;BME280;46439;51.164;13.572;2023-10-31T03:23:50;98065.16;;;16.22;100.00
60611;BME280;46439;51.164;13.572;2023-10-31T03:26:18;98070.37;;;16.14;100.00
60611;BME280;46439;51.164;13.572;2023-10-31T03:28:47;98075.31;;;16.13;100.00
60611;BME280;46439;51.164;13.572;2023-10-31T03:31:16;98069.98;;;16.11;100.00
60611;BME280;46439;51.164;13.572;2023-10-31T03:33:45;98070.70;;;16.14;100.00
60611;BME280;46439;51.164;13.572;2023-10-31T03:36:15;98066.73;;;16.15;100.00
60611;BME280;46439;51.164;13.572;2023-10-31T03:38:43;98064.65;;;16.15;100.00
60611;BME280;46439;51.164;13.572;2023-10-31T03:41:12;98066.18;;;16.08;100.00
60611;BME280;46439;51.164;13.572;2023-10-31T03:43:41;98069.00;;;15.99;100.00
60611;BME280;46439;51.164;13.572;2023-10-31T03:46:10;98068.85;;;15.86;100.00
60611;BME280;46439;51.164;13.572;2023-10-31T03:48:39;98066.67;;;15.78;100.00
60611;BME280;46439;51.164;13.572;2023-10-31T03:51:07;98064.13;;;15.75;100.00
60611;BME280;46439;51.164;13.572;2023-10-31T03:53:36;98063.71;;;15.69;100.00
60611;BME280;46439;51.164;13.572;2023-10-31T03:56:06;98059.78;;;15.61;100.00
60611;BME280;46439;51.164;13.572;2023-10-31T03:58:34;98063.44;;;15.56;100.00
60611;BME280;46439;51.164;13.572;2023-10-31T04:01:03;98061.05;;;15.51;100.00
60611;BME280;46439;51.164;13.572;2023-10-31T04:03:32;98057.86;;;15.46;100.00
60611;BME280;46439;51.164;13.572;2023-10-31T04:06:00;98052.34;;;15.38;100.00
60611;BME280;46439;51.164;13.572;2023-10-31T04:08:29;98053.46;;;15.32;100.00
60611;BME280;46439;51.164;13.572;2023-10-31T04:10:57;98054.95;;;15.28;100.00
60611;BME280;46439;51.164;13.572;2023-10-31T04:13:26;98051.45;;;15.27;100.00
60611;BME280;46439;51.164;13.572;2023-10-31T04:15:54;98047.12;;;15.28;100.00
60611;BME280;46439;51.164;13.572;2023-10-31T04:18:23;98048.13;;;15.26;100.00
60611;BME280;46439;51.164;13.572;2023-10-31T04:20:51;98043.91;;;15.17;100.00
60611;BME280;46439;51.164;13.572;2023-10-31T04:23:20;98039.11;;;15.09;100.00
60611;BME280;46439;51.164;13.572;2023-10-31T04:25:49;98036.27;;;15.05;100.00
60611;BME280;46439;51.164;13.572;2023-10-31T04:28:17;98041.08;;;15.02;100.00
60611;BME280;46439;51.164;13.572;2023-10-31T04:30:46;98041.12;;;15.01;100.00
60611;BME280;46439;51.164;13.572;2023-10-31T04:33:15;98042.54;;;14.96;100.00
60611;BME280;46439;51.164;13.572;2023-10-31T04:35:43;98039.40;;;14.92;100.00
60611;BME280;46439;51.164;13.572;2023-10-31T04:38:12;98042.10;;;14.91;100.00
60611;BME280;46439;51.164;13.572;2023-10-31T04:40:41;98046.46;;;14.88;100.00
60611;BME280;46439;51.164;13.572;2023-10-31T04:43:12;98046.34;;;14.87;100.00
60611;BME280;46439;51.164;13.572;2023-10-31T04:45:41;98053.37;;;14.88;100.00
60611;BME280;46439;51.164;13.572;2023-10-31T04:48:10;98061.15;;;14.87;100.00
60611;BME280;46439;51.164;13.572;2023-10-31T04:50:39;98071.24;;;14.85;100.00
60611;BME280;46439;51.164;13.572;2023-10-31T04:53:08;98082.85;;;14.83;100.00
60611;BME280;46439;51.164;13.572;2023-10-31T04:55:37;98088.16;;;14.81;100.00
60611;BME280;46439;51.164;13.572;2023-10-31T04:58:05;98089.52;;;14.80;100.00
60611;BME280;46439;51.164;13.572;2023-10-31T05:00:34;98091.65;;;14.83;100.00
60611;BME280;46439;51.164;13.572;2023-10-31T05:03:02;98091.91;;;14.86;100.00
60611;BME280;46439;51.164;13.572;2023-10-31T05:05:31;98098.49;;;14.87;100.00
60611;BME280;46439;51.164;13.572;2023-10-31T05:07:59;98092.88;;;14.85;100.00
60611;BME280;46439;51.164;13.572;2023-10-31T05:10:28;98098.26;;;14.89;100.00
60611;BME280;46439;51.164;13.572;2023-10-31T05:12:56;98095.20;;;14.93;100.00
60611;BME280;46439;51.164;13.572;2023-10-31T05:15:25;98090.44;;;14.94;100.00
60611;BME280;46439;51.164;13.572;2023-10-31T05:17:53;98091.49;;;14.93;100.00
60611;BME280;46439;51.164;13.572;2023-10-31T05:20:22;98093.61;;;14.96;100.00
60611;BME280;46439;51.164;13.572;2023-10-31T05:22:50;98095.80;;;14.97;100.00
60611;BME280;46439;51.164;13.572;2023-10-31T05:25:19;98100.82;;;14.99;100.00
60611;BME280;46439;51.164;13.572;2023-10-31T05:27:48;98102.23;;;14.99;100.00
60611;BME280;46439;51.164;13.572;2023-10-31T05:30:17;98110.36;;;14.97;100.00
60611;BME280;46439;51.164;13.572;2023-10-31T05:32:46;98109.77;;;14.93;100.00
60611;BME280;46439;51.164;13.572;2023-10-31T05:35:15;98110.16;;;14.93;100.00
60611;BME280;46439;51.164;13.572;2023-10-31T05:37:45;98110.97;;;14.93;100.00
60611;BME280;46439;51.164;13.572;2023-10-31T05:40:15;98117.42;;;14.94;100.00
60611;BME280;46439;51.164;13.572;2023-10-31T05:42:44;98122.48;;;14.93;100.00
60611;BME280;46439;51.164;13.572;2023-10-31T05:45:13;98127.30;;;14.92;100.00
60611;BME280;46439;51.164;13.572;2023-10-31T05:47:41;98131.80;;;14.91;100.00
60611;BME280;46439;51.164;13.572;2023-10-31T05:50:10;98140.38;;;14.91;100.00
60611;BME280;46439;51.164;13.572;2023-10-31T05:52:39;98147.92;;;14.90;100.00
60611;BME280;46439;51.164;13.572;2023-10-31T05:55:09;98154.10;;;14.89;100.00
60611;BME280;46439;51.164;13.572;2023-10-31T05:57:38;98159.53;;;14.88;100.00
60611;BME280;46439;51.164;13.572;2023-10-31T06:00:08;98167.09;;;14.88;100.00
60611;BME280;46439;51.164;13.572;2023-10-31T06:02:37;98164.42;;;14.89;100.00
60611;BME280;46439;51.164;13.572;2023-10-31T06:05:07;98162.27;;;14.91;100.00
60611;BME280;46439;51.164;13.572;2023-10-31T06:07:37;98172.45;;;14.92;100.00
60611;BME280;46439;51.164;13.572;2023-10-31T06:10:07;98174.74;;;14.92;100.00
60611;BME280;46439;51.164;13.572;2023-10-31T06:12:36;98178.20;;;14.91;100.00
60611;BME280;46439;51.164;13.572;2023-10-31T06:15:05;98188.89;;;14.90;100.00
60611;BME280;46439;51.164;13.572;2023-10-31T06:17:36;98200.58;;;14.89;100.00
60611;BME280;46439;51.164;13.572;2023-10-31T06:20:08;98203.89;;;14.87;100.00
60611;BME280;46439;51.164;13.572;2023-10-31T06:22:37;98206.62;;;14.86;100.00
60611;BME280;46439;51.164;13.572;2023-10-31T06:25:07;98214.91;;;14.88;100.00
60611;BME280;46439;51.164;13.572;2023-10-31T06:27:35;98221.70;;;14.88;100.00
60611;BME280;46439;51.164;13.572;2023-10-31T06:30:05;98227.00;;;14.87;100.00
60611;BME280;46439;51.164;13.572;2023-10-31T06:32:34;98238.02;;;14.87;100.00
60611;BME280;46439;51.164;13.572;2023-10-31T06:35:03;98236.69;;;14.85;100.00
60611;BME280;46439;51.164;13.572;2023-10-31T06:37:32;98242.48;;;14.83;100.00
60611;BME280;46439;51.164;13.572;2023-10-31T06:40:01;98249.38;;;14.83;100.00
60611;BME280;46439;51.164;13.572;2023-10-31T06:42:29;98260.33;;;14.85;100.00
60611;BME280;46439;51.164;13.572;2023-10-31T06:44:58;98271.41;;;14.86;100.00
60611;BME280;46439;51.164;13.572;2023-10-31T06:47:27;98275.05;;;14.85;100.00
60611;BME280;46439;51.164;13.572;2023-10-31T06:49:55;98279.07;;;14.85;100.00
60611;BME280;46439;51.164;13.572;2023-10-31T06:52:24;98285.28;;;14.86;100.00
60611;BME280;46439;51.164;13.572;2023-10-31T06:54:52;98282.63;;;14.84;100.00
60611;BME280;46439;51.164;13.572;2023-10-31T06:57:21;98280.77;;;14.83;100.00
60611;BME280;46439;51.164;13.572;2023-10-31T06:59:49;98282.07;;;14.86;100.00
60611;BME280;46439;51.164;13.572;2023-10-31T07:02:18;98285.11;;;14.86;100.00
60611;BME280;46439;51.164;13.572;2023-10-31T07:04:46;98292.14;;;14.84;100.00
60611;BME280;46439;51.164;13.572;2023-10-31T07:07:15;98297.48;;;14.81;100.00
60611;BME280;46439;51.164;13.572;2023-10-31T07:09:43;98299.87;;;14.77;100.00
60611;BME280;46439;51.164;13.572;2023-10-31T07:12:12;98302.29;;;14.73;100.00
60611;BME280;46439;51.164;13.572;2023-10-31T07:14:41;98300.92;;;14.69;100.00
60611;BME280;46439;51.164;13.572;2023-10-31T07:17:09;98306.48;;;14.67;100.00
60611;BME280;46439;51.164;13.572;2023-10-31T07:19:38;98311.23;;;14.68;100.00
60611;BME280;46439;51.164;13.572;2023-10-31T07:22:07;98318.59;;;14.70;100.00
60611;BME280;46439;51.164;13.572;2023-10-31T07:24:35;98321.05;;;14.71;100.00
60611;BME280;46439;51.164;13.572;2023-10-31T07:27:05;98324.18;;;14.73;100.00
60611;BME280;46439;51.164;13.572;2023-10-31T07:29:33;98326.79;;;14.72;100.00
60611;BME280;46439;51.164;13.572;2023-10-31T07:32:03;98332.28;;;14.73;100.00
60611;BME280;46439;51.164;13.572;2023-10-31T07:34:31;98338.48;;;14.74;100.00
60611;BME280;46439;51.164;13.572;2023-10-31T07:37:00;98346.70;;;14.74;100.00
60611;BME280;46439;51.164;13.572;2023-10-31T07:39:29;98353.80;;;14.77;100.00
60611;BME280;46439;51.164;13.572;2023-10-31T07:41:57;98361.91;;;14.74;100.00
60611;BME280;46439;51.164;13.572;2023-10-31T07:44:26;98361.82;;;14.73;100.00
60611;BME280;46439;51.164;13.572;2023-10-31T07:46:54;98363.42;;;14.71;100.00
60611;BME280;46439;51.164;13.572;2023-10-31T07:49:23;98369.25;;;14.72;100.00
60611;BME280;46439;51.164;13.572;2023-10-31T07:51:51;98372.19;;;14.71;100.00
60611;BME280;46439;51.164;13.572;2023-10-31T07:54:20;98371.59;;;14.72;100.00
60611;BME280;46439;51.164;13.572;2023-10-31T07:56:49;98370.15;;;14.73;100.00
60611;BME280;46439;51.164;13.572;2023-10-31T07:59:18;98371.13;;;14.73;100.00
60611;BME280;46439;51.164;13.572;2023-10-31T08:01:46;98376.89;;;14.74;100.00
60611;BME280;46439;51.164;13.572;2023-10-31T08:04:17;98379.36;;;14.72;100.00
60611;BME280;46439;51.164;13.572;2023-10-31T08:06:45;98387.58;;;14.70;100.00
60611;BME280;46439;51.164;13.572;2023-10-31T08:09:14;98390.91;;;14.68;100.00
60611;BME280;46439;51.164;13.572;2023-10-31T08:11:44;98389.23;;;14.62;100.00
60611;BME280;46439;51.164;13.572;2023-10-31T08:14:13;98387.23;;;14.57;100.00
60611;BME280;46439;51.164;13.572;2023-10-31T08:16:44;98385.34;;;14.53;100.00
60611;BME280;46439;51.164;13.572;2023-10-31T08:19:13;98387.22;;;14.52;100.00
60611;BME280;46439;51.164;13.572;2023-10-31T08:21:42;98391.27;;;14.50;100.00
60611;BME280;46439;51.164;13.572;2023-10-31T08:24:11;98398.08;;;14.52;100.00
60611;BME280;46439;51.164;13.572;2023-10-31T08:26:41;98406.34;;;14.52;100.00
60611;BME280;46439;51.164;13.572;2023-10-31T08:29:10;98422.30;;;14.54;100.00
60611;BME280;46439;51.164;13.572;2023-10-31T08:31:39;98424.14;;;14.59;100.00
60611;BME280;46439;51.164;13.572;2023-10-31T08:34:07;98423.34;;;14.59;100.00
60611;BME280;46439;51.164;13.572;2023-10-31T08:36:36;98425.55;;;14.58;100.00
60611;BME280;46439;51.164;13.572;2023-10-31T08:39:05;98421.70;;;14.62;100.00
60611;BME280;46439;51.164;13.572;2023-10-31T08:41:34;98421.09;;;14.67;100.00
60611;BME280;46439;51.164;13.572;2023-10-31T08:44:02;98425.13;;;14.68;100.00
60611;BME280;46439;51.164;13.572;2023-10-31T08:46:31;98425.33;;;14.66;100.00
60611;BME280;46439;51.164;13.572;2023-10-31T08:49:00;98427.69;;;14.65;100.00
60611;BME280;46439;51.164;13.572;2023-10-31T08:51:28;98437.84;;;14.65;100.00
60611;BME280;46439;51.164;13.572;2023-10-31T08:53:57;98440.97;;;14.64;100.00
60611;BME280;46439;51.164;13.572;2023-10-31T08:56:25;98445.08;;;14.63;100.00
60611;BME280;46439;51.164;13.572;2023-10-31T08:58:55;98444.66;;;14.58;100.00
60611;BME280;46439;51.164;13.572;2023-10-31T09:01:24;98441.59;;;14.62;100.00
60611;BME280;46439;51.164;13.572;2023-10-31T09:03:53;98440.73;;;14.63;100.00
60611;BME280;46439;51.164;13.572;2023-10-31T09:06:21;98434.09;;;14.65;100.00
60611;BME280;46439;51.164;13.572;2023-10-31T09:08:50;98436.58;;;14.67;100.00
60611;BME280;46439;51.164;13.572;2023-10-31T09:11:19;98444.06;;;14.71;100.00
60611;BME280;46439;51.164;13.572;2023-10-31T09:13:48;98448.58;;;14.78;100.00
60611;BME280;46439;51.164;13.572;2023-10-31T09:16:17;98449.20;;;14.86;100.00
60611;BME280;46439;51.164;13.572;2023-10-31T09:18:45;98448.14;;;14.93;100.00
60611;BME280;46439;51.164;13.572;2023-10-31T09:21:15;98451.23;;;14.96;100.00
60611;BME280;46439;51.164;13.572;2023-10-31T09:23:43;98450.19;;;14.98;100.00
60611;BME280;46439;51.164;13.572;2023-10-31T09:26:12;98447.52;;;15.01;100.00
60611;BME280;46439;51.164;13.572;2023-10-31T09:28:41;98449.41;;;15.03;100.00
60611;BME280;46439;51.164;13.572;2023-10-31T09:31:17;98455.66;;;15.06;100.00
60611;BME280;46439;51.164;13.572;2023-10-31T09:33:47;98465.80;;;15.12;100.00
60611;BME280;46439;51.164;13.572;2023-10-31T09:36:15;98473.70;;;15.19;100.00
60611;BME280;46439;51.164;13.572;2023-10-31T09:38:44;98475.65;;;15.22;100.00
60611;BME280;46439;51.164;13.572;2023-10-31T09:41:13;98475.06;;;15.25;100.00
60611;BME280;46439;51.164;13.572;2023-10-31T09:43:43;98480.39;;;15.28;100.00
60611;BME280;46439;51.164;13.572;2023-10-31T09:46:11;98478.85;;;15.33;100.00
60611;BME280;46439;51.164;13.572;2023-10-31T09:48:40;98470.38;;;15.37;100.00
60611;BME280;46439;51.164;13.572;2023-10-31T09:51:10;98463.27;;;15.41;100.00
60611;BME280;46439;51.164;13.572;2023-10-31T09:53:40;98464.45;;;15.44;100.00
60611;BME280;46439;51.164;13.572;2023-10-31T09:56:10;98465.92;;;15.31;100.00
60611;BME280;46439;51.164;13.572;2023-10-31T09:58:39;98466.47;;;15.31;100.00
60611;BME280;46439;51.164;13.572;2023-10-31T10:01:09;98474.09;;;15.45;100.00
60611;BME280;46439;51.164;13.572;2023-10-31T10:03:39;98475.13;;;15.52;100.00
60611;BME280;46439;51.164;13.572;2023-10-31T10:06:09;98480.02;;;15.55;100.00
60611;BME280;46439;51.164;13.572;2023-10-31T10:08:39;98488.39;;;15.54;100.00
60611;BME280;46439;51.164;13.572;2023-10-31T10:11:09;98497.27;;;15.55;100.00
60611;BME280;46439;51.164;13.572;2023-10-31T10:13:37;98498.36;;;15.55;100.00
60611;BME280;46439;51.164;13.572;2023-10-31T10:16:08;98496.81;;;15.57;100.00
60611;BME280;46439;51.164;13.572;2023-10-31T10:18:38;98501.71;;;15.58;100.00
60611;BME280;46439;51.164;13.572;2023-10-31T10:21:08;98506.54;;;15.60;100.00
60611;BME280;46439;51.164;13.572;2023-10-31T10:23:37;98508.41;;;15.58;100.00
60611;BME280;46439;51.164;13.572;2023-10-31T10:26:06;98507.20;;;15.56;100.00
60611;BME280;46439;51.164;13.572;2023-10-31T10:28:35;98511.55;;;15.53;100.00
60611;BME280;46439;51.164;13.572;2023-10-31T10:31:05;98516.92;;;15.56;100.00
60611;BME280;46439;51.164;13.572;2023-10-31T10:33:34;98518.06;;;15.56;100.00
60611;BME280;46439;51.164;13.572;2023-10-31T10:36:04;98522.20;;;15.55;100.00
60611;BME280;46439;51.164;13.572;2023-10-31T10:38:34;98528.81;;;15.52;100.00
60611;BME280;46439;51.164;13.572;2023-10-31T10:41:05;98529.23;;;15.48;100.00
60611;BME280;46439;51.164;13.572;2023-10-31T10:43:38;98531.36;;;15.48;100.00
60611;BME280;46439;51.164;13.572;2023-10-31T10:46:09;98533.04;;;15.48;100.00
60611;BME280;46439;51.164;13.572;2023-10-31T10:48:44;98537.58;;;15.49;100.00
60611;BME280;46439;51.164;13.572;2023-10-31T10:51:27;98535.42;;;15.50;100.00
60611;BME280;46439;51.164;13.572;2023-10-31T10:54:01;98530.54;;;15.51;100.00
60611;BME280;46439;51.164;13.572;2023-10-31T10:56:37;98531.70;;;15.52;100.00
60611;BME280;46439;51.164;13.572;2023-10-31T10:59:11;98532.48;;;15.51;100.00
60611;BME280;46439;51.164;13.572;2023-10-31T11:01:44;98537.17;;;15.50;100.00
60611;BME280;46439;51.164;13.572;2023-10-31T11:04:15;98537.74;;;15.46;100.00
60611;BME280;46439;51.164;13.572;2023-10-31T11:06:46;98531.23;;;15.40;100.00
60611;BME280;46439;51.164;13.572;2023-10-31T11:09:15;98528.96;;;15.35;100.00
60611;BME280;46439;51.164;13.572;2023-10-31T11:11:45;98516.19;;;15.32;100.00
60611;BME280;46439;51.164;13.572;2023-10-31T11:14:18;98510.36;;;15.34;100.00
60611;BME280;46439;51.164;13.572;2023-10-31T11:16:50;98503.95;;;15.42;100.00
60611;BME280;46439;51.164;13.572;2023-10-31T11:19:20;98500.79;;;15.51;100.00
60611;BME280;46439;51.164;13.572;2023-10-31T11:21:59;98509.27;;;15.54;100.00
60611;BME280;46439;51.164;13.572;2023-10-31T11:24:29;98516.47;;;15.52;100.00
60611;BME280;46439;51.164;13.572;2023-10-31T11:27:02;98522.27;;;15.52;100.00
60611;BME280;46439;51.164;13.572;2023-10-31T11:29:31;98525.65;;;15.51;100.00
60611;BME280;46439;51.164;13.572;2023-10-31T11:32:00;98529.58;;;15.51;100.00
60611;BME280;46439;51.164;13.572;2023-10-31T11:34:30;98540.58;;;15.49;100.00
60611;BME280;46439;51.164;13.572;2023-10-31T11:37:25;98546.95;;;15.50;100.00
60611;BME280;46439;51.164;13.572;2023-10-31T11:40:18;98555.46;;;15.46;100.00
60611;BME280;46439;51.164;13.572;2023-10-31T11:42:50;98556.44;;;15.39;100.00
60611;BME280;46439;51.164;13.572;2023-10-31T11:45:29;98562.02;;;15.34;100.00
60611;BME280;46439;51.164;13.572;2023-10-31T11:47:58;98558.61;;;15.33;100.00
60611;BME280;46439;51.164;13.572;2023-10-31T11:50:27;98557.28;;;15.34;100.00
60611;BME280;46439;51.164;13.572;2023-10-31T11:53:06;98562.27;;;15.34;100.00
60611;BME280;46439;51.164;13.572;2023-10-31T11:55:36;98562.90;;;15.36;100.00
60611;BME280;46439;51.164;13.572;2023-10-31T11:58:21;98566.77;;;15.36;100.00
60611;BME280;46439;51.164;13.572;2023-10-31T12:00:51;98571.52;;;15.36;100.00
60611;BME280;46439;51.164;13.572;2023-10-31T12:03:20;98573.59;;;15.37;100.00
60611;BME280;46439;51.164;13.572;2023-10-31T12:05:57;98567.04;;;15.38;100.00
60611;BME280;46439;51.164;13.572;2023-10-31T12:08:29;98562.21;;;15.42;100.00
60611;BME280;46439;51.164;13.572;2023-10-31T12:11:09;98558.94;;;15.48;100.00
60611;BME280;46439;51.164;13.572;2023-10-31T12:13:39;98558.16;;;15.54;100.00
60611;BME280;46439;51.164;13.572;2023-10-31T12:16:09;98575.83;;;15.59;100.00
60611;BME280;46439;51.164;13.572;2023-10-31T12:18:39;98590.14;;;15.62;100.00
60611;BME280;46439;51.164;13.572;2023-10-31T12:21:08;98598.19;;;15.66;100.00
60611;BME280;46439;51.164;13.572;2023-10-31T12:23:39;98605.54;;;15.69;100.00
60611;BME280;46439;51.164;13.572;2023-10-31T12:26:07;98598.88;;;15.71;100.00
60611;BME280;46439;51.164;13.572;2023-10-31T12:28:36;98585.60;;;15.73;100.00
60611;BME280;46439;51.164;13.572;2023-10-31T12:31:07;98571.29;;;15.73;100.00
60611;BME280;46439;51.164;13.572;2023-10-31T12:33:35;98562.88;;;15.73;100.00
60611;BME280;46439;51.164;13.572;2023-10-31T12:36:06;98554.42;;;15.73;100.00
60611;BME280;46439;51.164;13.572;2023-10-31T12:38:34;98567.11;;;15.71;100.00
60611;BME280;46439;51.164;13.572;2023-10-31T12:41:04;98567.02;;;15.69;100.00
60611;BME280;46439;51.164;13.572;2023-10-31T12:43:35;98554.86;;;15.68;100.00
60611;BME280;46439;51.164;13.572;2023-10-31T12:46:28;98549.76;;;15.68;100.00
60611;BME280;46439;51.164;13.572;2023-10-31T12:48:57;98543.45;;;15.68;100.00
60611;BME280;46439;51.164;13.572;2023-10-31T12:51:26;98561.91;;;15.66;100.00